sensor_id;sensor_type;location;lat;lon;timestamp;temperature;humidity
44509;DHT22;30214;52.246;14.408;2023-04-25T00:00:22;7.60;99.90
44509;DHT22;30214;52.246;14.408;2023-04-25T00:02:49;7.50;99.90
44509;DHT22;30214;52.246;14.408;2023-04-25T00:05:17;7.50;99.90
44509;DHT22;30214;52.246;14.408;2023-04-25T00:07:45;7.50;99.90
44509;DHT22;30214;52.246;14.408;2023-04-25T00:10:12;7.50;99.90
44509;DHT22;30214;52.246;14.408;2023-04-25T00:12:40;7.50;99.90
44509;DHT22;30214;52.246;14.408;2023-04-25T00:15:08;7.50;99.90
44509;DHT22;30214;52.246;14.408;2023-04-25T00:17:36;7.50;99.90
44509;DHT22;30214;52.246;14.408;2023-04-25T00:20:04;7.40;99.90
44509;DHT22;30214;52.246;14.408;2023-04-25T00:22:36;7.40;99.90
44509;DHT22;30214;52.246;14.408;2023-04-25T00:25:04;7.40;99.90
44509;DHT22;30214;52.246;14.408;2023-04-25T00:27:31;7.40;99.90
44509;DHT22;30214;52.246;14.408;2023-04-25T00:30:00;7.30;99.90
44509;DHT22;30214;52.246;14.408;2023-04-25T00:32:27;7.30;99.90
44509;DHT22;30214;52.246;14.408;2023-04-25T00:34:54;7.40;99.90
44509;DHT22;30214;52.246;14.408;2023-04-25T00:37:23;7.50;99.90
44509;DHT22;30214;52.246;14.408;2023-04-25T00:39:51;7.40;99.90
44509;DHT22;30214;52.246;14.408;2023-04-25T00:42:21;7.50;99.90
44509;DHT22;30214;52.246;14.408;2023-04-25T00:44:49;7.40;99.90
44509;DHT22;30214;52.246;14.408;2023-04-25T00:47:16;7.40;99.90
44509;DHT22;30214;52.246;14.408;2023-04-25T00:49:44;7.40;99.90
44509;DHT22;30214;52.246;14.408;2023-04-25T00:52:11;7.30;99.90
44509;DHT22;30214;52.246;14.408;2023-04-25T00:54:39;7.30;99.90
44509;DHT22;30214;52.246;14.408;2023-04-25T00:57:07;7.30;99.90
44509;DHT22;30214;52.246;14.408;2023-04-25T00:59:36;7.30;99.90
44509;DHT22;30214;52.246;14.408;2023-04-25T01:02:04;7.20;99.90
44509;DHT22;30214;52.246;14.408;2023-04-25T01:04:32;7.20;99.90
44509;DHT22;30214;52.246;14.408;2023-04-25T01:07:00;7.10;99.90
44509;DHT22;30214;52.246;14.408;2023-04-25T01:09:30;7.10;99.90
44509;DHT22;30214;52.246;14.408;2023-04-25T01:11:58;7.10;99.90
44509;DHT22;30214;52.246;14.408;2023-04-25T01:14:27;7.10;99.90
44509;DHT22;30214;52.246;14.408;2023-04-25T01:16:54;7.10;99.90
44509;DHT22;30214;52.246;14.408;2023-04-25T01:19:21;7.10;99.90
44509;DHT22;30214;52.246;14.408;2023-04-25T01:21:50;7.00;99.90
44509;DHT22;30214;52.246;14.408;2023-04-25T01:24:18;6.90;99.90
44509;DHT22;30214;52.246;14.408;2023-04-25T01:26:45;6.90;99.90
44509;DHT22;30214;52.246;14.408;2023-04-25T01:29:17;6.90;99.90
44509;DHT22;30214;52.246;14.408;2023-04-25T01:31:45;6.80;99.90
44509;DHT22;30214;52.246;14.408;2023-04-25T01:34:13;6.80;99.90
44509;DHT22;30214;52.246;14.408;2023-04-25T01:36:40;6.70;99.90
44509;DHT22;30214;52.246;14.408;2023-04-25T01:39:09;6.70;99.90
44509;DHT22;30214;52.246;14.408;2023-04-25T01:41:37;6.80;99.90
44509;DHT22;30214;52.246;14.408;2023-04-25T01:44:05;6.70;99.90
44509;DHT22;30214;52.246;14.408;2023-04-25T01:46:33;6.80;99.90
44509;DHT22;30214;52.246;14.408;2023-04-25T01:49:00;6.80;99.90
44509;DHT22;30214;52.246;14.408;2023-04-25T01:51:28;6.70;99.90
44509;DHT22;30214;52.246;14.408;2023-04-25T01:53:56;6.70;99.90
44509;DHT22;30214;52.246;14.408;2023-04-25T01:56:25;6.60;99.90
44509;DHT22;30214;52.246;14.408;2023-04-25T01:58:57;6.50;99.90
44509;DHT22;30214;52.246;14.408;2023-04-25T02:01:43;6.40;99.90
44509;DHT22;30214;52.246;14.408;2023-04-25T02:04:19;6.40;99.90
44509;DHT22;30214;52.246;14.408;2023-04-25T02:06:46;6.40;99.90
44509;DHT22;30214;52.246;14.408;2023-04-25T02:09:14;6.40;99.90
44509;DHT22;30214;52.246;14.408;2023-04-25T02:11:47;6.40;99.90
44509;DHT22;30214;52.246;14.408;2023-04-25T02:14:33;6.40;99.90
44509;DHT22;30214;52.246;14.408;2023-04-25T02:17:04;6.40;99.90
44509;DHT22;30214;52.246;14.408;2023-04-25T02:19:32;6.30;99.90
44509;DHT22;30214;52.246;14.408;2023-04-25T02:21:59;6.30;99.90
44509;DHT22;30214;52.246;14.408;2023-04-25T02:24:27;6.30;99.90
44509;DHT22;30214;52.246;14.408;2023-04-25T02:26:57;6.30;99.90
44509;DHT22;30214;52.246;14.408;2023-04-25T02:29:24;6.30;99.90
44509;DHT22;30214;52.246;14.408;2023-04-25T02:31:51;6.30;99.90
44509;DHT22;30214;52.246;14.408;2023-04-25T02:34:18;6.30;99.90
44509;DHT22;30214;52.246;14.408;2023-04-25T02:36:45;6.30;99.90
44509;DHT22;30214;52.246;14.408;2023-04-25T02:39:17;6.30;99.90
44509;DHT22;30214;52.246;14.408;2023-04-25T02:41:44;6.40;99.90
44509;DHT22;30214;52.246;14.408;2023-04-25T02:44:12;6.50;99.90
44509;DHT22;30214;52.246;14.408;2023-04-25T02:46:39;6.60;99.90
44509;DHT22;30214;52.246;14.408;2023-04-25T02:49:07;6.70;99.90
44509;DHT22;30214;52.246;14.408;2023-04-25T02:51:35;6.70;99.90
44509;DHT22;30214;52.246;14.408;2023-04-25T02:54:02;6.80;99.90
44509;DHT22;30214;52.246;14.408;2023-04-25T02:56:33;6.80;99.90
44509;DHT22;30214;52.246;14.408;2023-04-25T02:59:00;6.90;99.90
44509;DHT22;30214;52.246;14.408;2023-04-25T03:01:29;6.90;99.90
44509;DHT22;30214;52.246;14.408;2023-04-25T03:03:56;7.00;99.90
44509;DHT22;30214;52.246;14.408;2023-04-25T03:06:24;7.00;99.90
44509;DHT22;30214;52.246;14.408;2023-04-25T03:08:51;7.00;99.90
44509;DHT22;30214;52.246;14.408;2023-04-25T03:11:18;7.00;99.90
44509;DHT22;30214;52.246;14.408;2023-04-25T03:13:46;7.10;99.90
44509;DHT22;30214;52.246;14.408;2023-04-25T03:16:13;7.10;99.90
44509;DHT22;30214;52.246;14.408;2023-04-25T03:18:42;7.20;99.90
44509;DHT22;30214;52.246;14.408;2023-04-25T03:21:09;7.10;99.90
44509;DHT22;30214;52.246;14.408;2023-04-25T03:23:36;7.10;99.90
44509;DHT22;30214;52.246;14.408;2023-04-25T03:26:03;7.10;99.90
44509;DHT22;30214;52.246;14.408;2023-04-25T03:28:31;7.10;99.90
44509;DHT22;30214;52.246;14.408;2023-04-25T03:30:58;7.10;99.90
44509;DHT22;30214;52.246;14.408;2023-04-25T03:33:25;7.10;99.90
44509;DHT22;30214;52.246;14.408;2023-04-25T03:35:53;7.10;99.90
44509;DHT22;30214;52.246;14.408;2023-04-25T03:38:21;7.20;99.90
44509;DHT22;30214;52.246;14.408;2023-04-25T03:40:50;7.20;99.90
44509;DHT22;30214;52.246;14.408;2023-04-25T03:43:43;7.10;99.90
44509;DHT22;30214;52.246;14.408;2023-04-25T03:46:12;7.10;99.90
44509;DHT22;30214;52.246;14.408;2023-04-25T03:48:40;7.20;99.90
44509;DHT22;30214;52.246;14.408;2023-04-25T03:51:11;7.20;99.90
44509;DHT22;30214;52.246;14.408;2023-04-25T03:53:41;7.10;99.90
44509;DHT22;30214;52.246;14.408;2023-04-25T03:56:14;7.10;99.90
44509;DHT22;30214;52.246;14.408;2023-04-25T03:58:43;7.10;99.90
44509;DHT22;30214;52.246;14.408;2023-04-25T04:01:11;7.10;99.90
44509;DHT22;30214;52.246;14.408;2023-04-25T04:03:39;7.20;99.90
44509;DHT22;30214;52.246;14.408;2023-04-25T04:06:07;7.20;99.90
44509;DHT22;30214;52.246;14.408;2023-04-25T04:08:44;7.20;99.90
44509;DHT22;30214;52.246;14.408;2023-04-25T04:11:11;7.20;99.90
44509;DHT22;30214;52.246;14.408;2023-04-25T04:13:38;7.20;99.90
44509;DHT22;30214;52.246;14.408;2023-04-25T04:16:06;7.20;99.90
44509;DHT22;30214;52.246;14.408;2023-04-25T04:18:34;7.20;99.90
44509;DHT22;30214;52.246;14.408;2023-04-25T04:21:01;7.30;99.90
44509;DHT22;30214;52.246;14.408;2023-04-25T04:23:31;7.30;99.90
44509;DHT22;30214;52.246;14.408;2023-04-25T04:26:00;7.40;99.90
44509;DHT22;30214;52.246;14.408;2023-04-25T04:28:39;7.30;99.90
44509;DHT22;30214;52.246;14.408;2023-04-25T04:31:20;7.40;99.90
44509;DHT22;30214;52.246;14.408;2023-04-25T04:33:47;7.40;99.90
44509;DHT22;30214;52.246;14.408;2023-04-25T04:36:15;7.40;99.90
44509;DHT22;30214;52.246;14.408;2023-04-25T04:38:45;7.40;99.90
44509;DHT22;30214;52.246;14.408;2023-04-25T04:41:22;7.50;99.90
44509;DHT22;30214;52.246;14.408;2023-04-25T04:44:11;7.50;99.90
44509;DHT22;30214;52.246;14.408;2023-04-25T04:46:59;7.50;99.90
44509;DHT22;30214;52.246;14.408;2023-04-25T04:49:33;7.40;99.90
44509;DHT22;30214;52.246;14.408;2023-04-25T04:52:17;7.40;99.90
44509;DHT22;30214;52.246;14.408;2023-04-25T04:55:01;7.40;99.90
44509;DHT22;30214;52.246;14.408;2023-04-25T04:57:41;7.50;99.90
44509;DHT22;30214;52.246;14.408;2023-04-25T05:00:32;7.50;99.90
44509;DHT22;30214;52.246;14.408;2023-04-25T05:03:28;7.60;99.90
44509;DHT22;30214;52.246;14.408;2023-04-25T05:06:24;7.50;99.90
44509;DHT22;30214;52.246;14.408;2023-04-25T05:09:11;7.60;99.90
44509;DHT22;30214;52.246;14.408;2023-04-25T05:11:58;7.60;99.90
44509;DHT22;30214;52.246;14.408;2023-04-25T05:14:51;7.70;99.90
44509;DHT22;30214;52.246;14.408;2023-04-25T05:17:39;7.80;99.90
44509;DHT22;30214;52.246;14.408;2023-04-25T05:20:29;7.80;99.90
44509;DHT22;30214;52.246;14.408;2023-04-25T05:23:19;7.70;99.90
44509;DHT22;30214;52.246;14.408;2023-04-25T05:26:00;7.80;99.90
44509;DHT22;30214;52.246;14.408;2023-04-25T05:28:39;7.70;99.90
44509;DHT22;30214;52.246;14.408;2023-04-25T05:31:30;7.70;99.90
44509;DHT22;30214;52.246;14.408;2023-04-25T05:34:18;7.80;99.90
44509;DHT22;30214;52.246;14.408;2023-04-25T05:37:00;7.80;99.90
44509;DHT22;30214;52.246;14.408;2023-04-25T05:39:32;7.90;99.90
44509;DHT22;30214;52.246;14.408;2023-04-25T05:42:10;7.80;99.90
44509;DHT22;30214;52.246;14.408;2023-04-25T05:44:44;7.90;99.90
44509;DHT22;30214;52.246;14.408;2023-04-25T05:47:53;7.90;99.90
44509;DHT22;30214;52.246;14.408;2023-04-25T05:50:55;7.90;99.90
44509;DHT22;30214;52.246;14.408;2023-04-25T05:53:47;8.10;99.90
44509;DHT22;30214;52.246;14.408;2023-04-25T05:56:18;8.10;99.90
44509;DHT22;30214;52.246;14.408;2023-04-25T05:58:52;8.20;99.90
44509;DHT22;30214;52.246;14.408;2023-04-25T06:01:22;8.20;99.90
44509;DHT22;30214;52.246;14.408;2023-04-25T06:04:09;8.30;99.90
44509;DHT22;30214;52.246;14.408;2023-04-25T06:06:38;8.30;99.90
44509;DHT22;30214;52.246;14.408;2023-04-25T06:09:06;8.40;99.90
44509;DHT22;30214;52.246;14.408;2023-04-25T06:11:38;8.50;99.90
44509;DHT22;30214;52.246;14.408;2023-04-25T06:14:07;8.50;99.90
44509;DHT22;30214;52.246;14.408;2023-04-25T06:16:40;8.50;99.90
44509;DHT22;30214;52.246;14.408;2023-04-25T06:19:14;8.60;99.90
44509;DHT22;30214;52.246;14.408;2023-04-25T06:21:43;8.70;99.90
44509;DHT22;30214;52.246;14.408;2023-04-25T06:24:15;8.80;99.90
44509;DHT22;30214;52.246;14.408;2023-04-25T06:26:44;8.90;99.90
44509;DHT22;30214;52.246;14.408;2023-04-25T06:29:15;8.90;99.90
44509;DHT22;30214;52.246;14.408;2023-04-25T06:31:44;8.90;99.90
44509;DHT22;30214;52.246;14.408;2023-04-25T06:34:17;9.00;99.90
44509;DHT22;30214;52.246;14.408;2023-04-25T06:36:47;9.00;99.90
44509;DHT22;30214;52.246;14.408;2023-04-25T06:39:16;9.00;99.90
44509;DHT22;30214;52.246;14.408;2023-04-25T06:41:45;9.00;99.90
44509;DHT22;30214;52.246;14.408;2023-04-25T06:44:34;9.10;99.90
44509;DHT22;30214;52.246;14.408;2023-04-25T06:47:08;9.10;99.90
44509;DHT22;30214;52.246;14.408;2023-04-25T06:49:38;9.20;99.90
44509;DHT22;30214;52.246;14.408;2023-04-25T06:52:09;9.20;99.90
44509;DHT22;30214;52.246;14.408;2023-04-25T06:54:38;9.10;99.90
44509;DHT22;30214;52.246;14.408;2023-04-25T06:57:35;9.30;99.90
44509;DHT22;30214;52.246;14.408;2023-04-25T07:00:24;9.60;99.90
44509;DHT22;30214;52.246;14.408;2023-04-25T07:02:56;10.00;99.90
44509;DHT22;30214;52.246;14.408;2023-04-25T07:05:37;10.30;99.90
44509;DHT22;30214;52.246;14.408;2023-04-25T07:08:07;10.30;99.90
44509;DHT22;30214;52.246;14.408;2023-04-25T07:10:37;10.20;99.90
44509;DHT22;30214;52.246;14.408;2023-04-25T07:13:07;10.20;99.90
44509;DHT22;30214;52.246;14.408;2023-04-25T07:15:41;10.30;99.90
44509;DHT22;30214;52.246;14.408;2023-04-25T07:18:11;10.40;99.90
44509;DHT22;30214;52.246;14.408;2023-04-25T07:20:47;10.50;99.90
44509;DHT22;30214;52.246;14.408;2023-04-25T07:23:17;10.40;99.90
44509;DHT22;30214;52.246;14.408;2023-04-25T07:25:48;10.30;99.90
44509;DHT22;30214;52.246;14.408;2023-04-25T07:28:21;10.40;99.90
44509;DHT22;30214;52.246;14.408;2023-04-25T07:30:49;10.50;99.90
44509;DHT22;30214;52.246;14.408;2023-04-25T07:33:18;10.60;99.90
44509;DHT22;30214;52.246;14.408;2023-04-25T07:35:49;10.60;99.90
44509;DHT22;30214;52.246;14.408;2023-04-25T07:38:20;10.60;99.90
44509;DHT22;30214;52.246;14.408;2023-04-25T07:40:50;10.40;99.90
44509;DHT22;30214;52.246;14.408;2023-04-25T07:43:21;10.30;99.90
44509;DHT22;30214;52.246;14.408;2023-04-25T07:46:09;10.30;99.90
44509;DHT22;30214;52.246;14.408;2023-04-25T07:48:38;10.20;99.90
44509;DHT22;30214;52.246;14.408;2023-04-25T07:51:08;10.20;99.90
44509;DHT22;30214;52.246;14.408;2023-04-25T07:53:38;10.30;99.90
44509;DHT22;30214;52.246;14.408;2023-04-25T07:56:12;10.40;99.90
44509;DHT22;30214;52.246;14.408;2023-04-25T07:58:44;10.60;99.90
44509;DHT22;30214;52.246;14.408;2023-04-25T08:01:15;10.70;99.90
44509;DHT22;30214;52.246;14.408;2023-04-25T08:03:55;10.80;99.90
44509;DHT22;30214;52.246;14.408;2023-04-25T08:06:45;11.00;99.90
44509;DHT22;30214;52.246;14.408;2023-04-25T08:09:20;11.00;99.90
44509;DHT22;30214;52.246;14.408;2023-04-25T08:11:49;11.10;99.90
44509;DHT22;30214;52.246;14.408;2023-04-25T08:14:22;11.30;99.90
44509;DHT22;30214;52.246;14.408;2023-04-25T08:16:51;11.50;99.90
44509;DHT22;30214;52.246;14.408;2023-04-25T08:19:24;11.50;99.90
44509;DHT22;30214;52.246;14.408;2023-04-25T08:21:58;11.50;99.90
44509;DHT22;30214;52.246;14.408;2023-04-25T08:24:40;11.40;99.90
44509;DHT22;30214;52.246;14.408;2023-04-25T08:27:36;11.20;99.90
44509;DHT22;30214;52.246;14.408;2023-04-25T08:30:06;11.10;99.90
44509;DHT22;30214;52.246;14.408;2023-04-25T08:32:36;11.20;99.90
44509;DHT22;30214;52.246;14.408;2023-04-25T08:35:19;11.20;99.90
44509;DHT22;30214;52.246;14.408;2023-04-25T08:37:49;11.20;99.90
44509;DHT22;30214;52.246;14.408;2023-04-25T08:40:17;11.40;99.90
44509;DHT22;30214;52.246;14.408;2023-04-25T08:42:58;11.40;99.90
44509;DHT22;30214;52.246;14.408;2023-04-25T08:45:27;11.50;99.90
44509;DHT22;30214;52.246;14.408;2023-04-25T08:47:57;11.50;99.90
44509;DHT22;30214;52.246;14.408;2023-04-25T08:50:27;11.50;99.90
44509;DHT22;30214;52.246;14.408;2023-04-25T08:52:59;11.60;99.90
44509;DHT22;30214;52.246;14.408;2023-04-25T08:55:30;11.70;99.90
44509;DHT22;30214;52.246;14.408;2023-04-25T08:57:59;11.70;99.90
44509;DHT22;30214;52.246;14.408;2023-04-25T09:00:28;11.60;99.90
44509;DHT22;30214;52.246;14.408;2023-04-25T09:02:57;11.50;99.90
44509;DHT22;30214;52.246;14.408;2023-04-25T09:05:30;11.50;99.90
44509;DHT22;30214;52.246;14.408;2023-04-25T09:08:01;11.70;99.90
44509;DHT22;30214;52.246;14.408;2023-04-25T09:10:29;11.80;99.90
44509;DHT22;30214;52.246;14.408;2023-04-25T09:13:04;12.00;99.90
44509;DHT22;30214;52.246;14.408;2023-04-25T09:15:51;12.10;99.90
44509;DHT22;30214;52.246;14.408;2023-04-25T09:18:52;12.30;99.90
44509;DHT22;30214;52.246;14.408;2023-04-25T09:21:22;12.50;99.90
44509;DHT22;30214;52.246;14.408;2023-04-25T09:23:53;12.70;99.90
44509;DHT22;30214;52.246;14.408;2023-04-25T09:26:26;12.90;99.30
44509;DHT22;30214;52.246;14.408;2023-04-25T09:29:05;13.00;99.60
44509;DHT22;30214;52.246;14.408;2023-04-25T09:31:35;12.90;99.70
44509;DHT22;30214;52.246;14.408;2023-04-25T09:34:03;12.80;99.30
44509;DHT22;30214;52.246;14.408;2023-04-25T09:36:40;12.70;99.80
44509;DHT22;30214;52.246;14.408;2023-04-25T09:39:35;12.20;99.90
44509;DHT22;30214;52.246;14.408;2023-04-25T09:42:11;11.60;99.90
44509;DHT22;30214;52.246;14.408;2023-04-25T09:44:42;11.00;99.90
44509;DHT22;30214;52.246;14.408;2023-04-25T09:47:12;10.80;99.90
44509;DHT22;30214;52.246;14.408;2023-04-25T09:49:43;10.90;99.90
44509;DHT22;30214;52.246;14.408;2023-04-25T09:52:14;11.00;99.90
44509;DHT22;30214;52.246;14.408;2023-04-25T09:54:53;11.00;99.90
44509;DHT22;30214;52.246;14.408;2023-04-25T09:57:27;11.10;99.90
44509;DHT22;30214;52.246;14.408;2023-04-25T09:59:56;11.10;99.90
44509;DHT22;30214;52.246;14.408;2023-04-25T10:02:27;11.20;99.90
44509;DHT22;30214;52.246;14.408;2023-04-25T10:05:02;11.20;99.90
44509;DHT22;30214;52.246;14.408;2023-04-25T10:07:36;11.20;99.90
44509;DHT22;30214;52.246;14.408;2023-04-25T10:10:12;11.20;99.90
44509;DHT22;30214;52.246;14.408;2023-04-25T10:12:40;11.30;99.90
44509;DHT22;30214;52.246;14.408;2023-04-25T10:15:09;11.40;99.90
44509;DHT22;30214;52.246;14.408;2023-04-25T10:17:38;11.50;99.90
44509;DHT22;30214;52.246;14.408;2023-04-25T10:20:07;11.50;99.90
44509;DHT22;30214;52.246;14.408;2023-04-25T10:22:38;11.50;99.90
44509;DHT22;30214;52.246;14.408;2023-04-25T10:25:09;11.20;99.90
44509;DHT22;30214;52.246;14.408;2023-04-25T10:27:37;11.00;99.90
44509;DHT22;30214;52.246;14.408;2023-04-25T10:30:08;10.80;99.90
44509;DHT22;30214;52.246;14.408;2023-04-25T10:32:38;10.80;99.90
44509;DHT22;30214;52.246;14.408;2023-04-25T10:35:12;10.70;99.90
44509;DHT22;30214;52.246;14.408;2023-04-25T10:38:03;10.50;99.90
44509;DHT22;30214;52.246;14.408;2023-04-25T10:40:32;10.50;99.90
44509;DHT22;30214;52.246;14.408;2023-04-25T10:46:00;10.20;99.90
44509;DHT22;30214;52.246;14.408;2023-04-25T10:48:28;10.20;99.90
44509;DHT22;30214;52.246;14.408;2023-04-25T10:51:07;10.20;99.90
44509;DHT22;30214;52.246;14.408;2023-04-25T10:53:35;10.40;99.90
44509;DHT22;30214;52.246;14.408;2023-04-25T10:56:11;10.50;99.90
44509;DHT22;30214;52.246;14.408;2023-04-25T10:58:42;10.40;99.90
44509;DHT22;30214;52.246;14.408;2023-04-25T11:01:10;10.50;99.90
44509;DHT22;30214;52.246;14.408;2023-04-25T11:03:41;10.60;99.90
44509;DHT22;30214;52.246;14.408;2023-04-25T11:06:16;10.80;99.90
44509;DHT22;30214;52.246;14.408;2023-04-25T11:08:49;11.00;99.90
44509;DHT22;30214;52.246;14.408;2023-04-25T11:11:18;11.20;99.90
44509;DHT22;30214;52.246;14.408;2023-04-25T11:13:47;11.40;99.90
44509;DHT22;30214;52.246;14.408;2023-04-25T11:16:15;11.40;99.90
44509;DHT22;30214;52.246;14.408;2023-04-25T11:18:43;11.50;99.90
44509;DHT22;30214;52.246;14.408;2023-04-25T11:21:11;11.70;99.90
44509;DHT22;30214;52.246;14.408;2023-04-25T11:23:38;11.80;99.90
44509;DHT22;30214;52.246;14.408;2023-04-25T11:26:05;11.90;99.90
44509;DHT22;30214;52.246;14.408;2023-04-25T11:28:34;12.00;99.90
44509;DHT22;30214;52.246;14.408;2023-04-25T11:31:02;12.10;99.40
44509;DHT22;30214;52.246;14.408;2023-04-25T11:33:31;12.10;99.00
44509;DHT22;30214;52.246;14.408;2023-04-25T11:35:58;12.20;99.90
44509;DHT22;30214;52.246;14.408;2023-04-25T11:38:26;12.10;97.10
44509;DHT22;30214;52.246;14.408;2023-04-25T11:40:54;12.10;94.80
44509;DHT22;30214;52.246;14.408;2023-04-25T11:43:22;12.20;92.90
44509;DHT22;30214;52.246;14.408;2023-04-25T11:45:50;12.20;91.10
44509;DHT22;30214;52.246;14.408;2023-04-25T11:48:18;12.10;91.60
44509;DHT22;30214;52.246;14.408;2023-04-25T11:50:45;12.10;90.20
44509;DHT22;30214;52.246;14.408;2023-04-25T11:53:13;12.10;91.40
44509;DHT22;30214;52.246;14.408;2023-04-25T11:55:40;12.10;91.80
44509;DHT22;30214;52.246;14.408;2023-04-25T11:58:07;12.00;90.80
44509;DHT22;30214;52.246;14.408;2023-04-25T12:00:35;11.90;91.00
44509;DHT22;30214;52.246;14.408;2023-04-25T12:03:03;11.90;90.50
44509;DHT22;30214;52.246;14.408;2023-04-25T12:05:31;12.00;90.80
44509;DHT22;30214;52.246;14.408;2023-04-25T12:08:10;12.10;90.20
44509;DHT22;30214;52.246;14.408;2023-04-25T12:10:39;12.30;91.40
44509;DHT22;30214;52.246;14.408;2023-04-25T12:13:20;12.40;86.60
44509;DHT22;30214;52.246;14.408;2023-04-25T12:15:48;12.10;84.60
44509;DHT22;30214;52.246;14.408;2023-04-25T12:18:19;11.90;87.80
44509;DHT22;30214;52.246;14.408;2023-04-25T12:20:47;11.80;85.00
44509;DHT22;30214;52.246;14.408;2023-04-25T12:23:15;11.90;84.50
44509;DHT22;30214;52.246;14.408;2023-04-25T12:25:45;11.80;82.70
44509;DHT22;30214;52.246;14.408;2023-04-25T12:28:14;11.90;82.20
44509;DHT22;30214;52.246;14.408;2023-04-25T12:30:58;12.10;79.00
44509;DHT22;30214;52.246;14.408;2023-04-25T12:33:32;12.20;80.50
44509;DHT22;30214;52.246;14.408;2023-04-25T12:36:01;12.20;80.70
44509;DHT22;30214;52.246;14.408;2023-04-25T12:38:36;12.00;81.00
44509;DHT22;30214;52.246;14.408;2023-04-25T12:41:05;11.90;81.50
44509;DHT22;30214;52.246;14.408;2023-04-25T12:43:33;11.70;81.10
44509;DHT22;30214;52.246;14.408;2023-04-25T12:46:00;11.70;81.60
44509;DHT22;30214;52.246;14.408;2023-04-25T12:48:29;11.80;81.70
44509;DHT22;30214;52.246;14.408;2023-04-25T12:50:56;11.80;79.70
44509;DHT22;30214;52.246;14.408;2023-04-25T12:53:24;11.80;77.60
44509;DHT22;30214;52.246;14.408;2023-04-25T12:55:51;11.80;75.40
44509;DHT22;30214;52.246;14.408;2023-04-25T12:58:19;11.80;77.40
44509;DHT22;30214;52.246;14.408;2023-04-25T13:00:47;11.90;73.00
44509;DHT22;30214;52.246;14.408;2023-04-25T13:03:14;11.90;73.00
44509;DHT22;30214;52.246;14.408;2023-04-25T13:05:43;12.10;76.60
44509;DHT22;30214;52.246;14.408;2023-04-25T13:08:10;12.10;75.20
44509;DHT22;30214;52.246;14.408;2023-04-25T13:10:37;12.00;75.70
44509;DHT22;30214;52.246;14.408;2023-04-25T13:13:04;12.10;75.00
44509;DHT22;30214;52.246;14.408;2023-04-25T13:15:31;12.00;76.10
44509;DHT22;30214;52.246;14.408;2023-04-25T13:17:58;12.00;74.90
44509;DHT22;30214;52.246;14.408;2023-04-25T13:20:25;12.10;75.80
44509;DHT22;30214;52.246;14.408;2023-04-25T13:22:54;12.00;72.90
44509;DHT22;30214;52.246;14.408;2023-04-25T13:25:21;11.90;74.80
44509;DHT22;30214;52.246;14.408;2023-04-25T13:27:49;11.80;74.80
44509;DHT22;30214;52.246;14.408;2023-04-25T13:30:16;11.80;75.00
44509;DHT22;30214;52.246;14.408;2023-04-25T13:32:43;11.70;77.10
44509;DHT22;30214;52.246;14.408;2023-04-25T13:35:12;11.50;76.10
44509;DHT22;30214;52.246;14.408;2023-04-25T13:37:39;11.50;76.70
44509;DHT22;30214;52.246;14.408;2023-04-25T13:40:10;11.50;78.60
44509;DHT22;30214;52.246;14.408;2023-04-25T13:42:38;11.60;78.90
44509;DHT22;30214;52.246;14.408;2023-04-25T13:45:06;11.60;74.70
44509;DHT22;30214;52.246;14.408;2023-04-25T13:47:34;11.70;70.00
44509;DHT22;30214;52.246;14.408;2023-04-25T13:50:02;11.60;69.80
44509;DHT22;30214;52.246;14.408;2023-04-25T13:52:29;11.50;69.50
44509;DHT22;30214;52.246;14.408;2023-04-25T13:54:56;11.50;70.40
44509;DHT22;30214;52.246;14.408;2023-04-25T13:57:24;11.60;69.20
44509;DHT22;30214;52.246;14.408;2023-04-25T13:59:52;11.60;68.00
44509;DHT22;30214;52.246;14.408;2023-04-25T14:02:19;11.60;67.00
44509;DHT22;30214;52.246;14.408;2023-04-25T14:04:47;11.60;66.50
44509;DHT22;30214;52.246;14.408;2023-04-25T14:07:14;11.50;67.60
44509;DHT22;30214;52.246;14.408;2023-04-25T14:09:42;11.20;68.90
44509;DHT22;30214;52.246;14.408;2023-04-25T14:12:09;11.20;70.10
44509;DHT22;30214;52.246;14.408;2023-04-25T14:14:38;11.30;68.80
44509;DHT22;30214;52.246;14.408;2023-04-25T14:17:05;11.40;67.30
44509;DHT22;30214;52.246;14.408;2023-04-25T14:19:32;11.40;67.70
44509;DHT22;30214;52.246;14.408;2023-04-25T14:21:59;11.50;67.10
44509;DHT22;30214;52.246;14.408;2023-04-25T14:24:27;11.50;68.50
44509;DHT22;30214;52.246;14.408;2023-04-25T14:26:54;11.50;68.90
44509;DHT22;30214;52.246;14.408;2023-04-25T14:29:23;11.50;65.60
44509;DHT22;30214;52.246;14.408;2023-04-25T14:31:51;11.60;65.70
44509;DHT22;30214;52.246;14.408;2023-04-25T14:34:19;11.60;65.50
44509;DHT22;30214;52.246;14.408;2023-04-25T14:36:46;11.60;64.80
44509;DHT22;30214;52.246;14.408;2023-04-25T14:39:14;11.60;64.60
44509;DHT22;30214;52.246;14.408;2023-04-25T14:41:42;11.70;65.30
44509;DHT22;30214;52.246;14.408;2023-04-25T14:44:14;11.70;64.60
44509;DHT22;30214;52.246;14.408;2023-04-25T14:46:50;11.60;65.00
44509;DHT22;30214;52.246;14.408;2023-04-25T14:49:26;11.60;64.60
44509;DHT22;30214;52.246;14.408;2023-04-25T14:51:54;11.40;66.30
44509;DHT22;30214;52.246;14.408;2023-04-25T14:54:23;11.20;64.50
44509;DHT22;30214;52.246;14.408;2023-04-25T14:56:51;11.10;63.30
44509;DHT22;30214;52.246;14.408;2023-04-25T14:59:19;11.10;63.90
44509;DHT22;30214;52.246;14.408;2023-04-25T15:01:47;11.10;66.80
44509;DHT22;30214;52.246;14.408;2023-04-25T15:04:18;11.10;65.20
44509;DHT22;30214;52.246;14.408;2023-04-25T15:06:47;11.30;65.80
44509;DHT22;30214;52.246;14.408;2023-04-25T15:09:15;11.50;63.40
44509;DHT22;30214;52.246;14.408;2023-04-25T15:11:43;11.60;65.20
44509;DHT22;30214;52.246;14.408;2023-04-25T15:14:12;11.60;62.00
44509;DHT22;30214;52.246;14.408;2023-04-25T15:16:40;11.40;62.60
44509;DHT22;30214;52.246;14.408;2023-04-25T15:19:09;11.30;63.80
44509;DHT22;30214;52.246;14.408;2023-04-25T15:21:37;11.30;64.00
44509;DHT22;30214;52.246;14.408;2023-04-25T15:24:05;11.20;63.40
44509;DHT22;30214;52.246;14.408;2023-04-25T15:26:33;11.10;63.90
44509;DHT22;30214;52.246;14.408;2023-04-25T15:29:00;11.20;65.10
44509;DHT22;30214;52.246;14.408;2023-04-25T15:31:29;11.30;65.60
44509;DHT22;30214;52.246;14.408;2023-04-25T15:33:56;11.40;65.20
44509;DHT22;30214;52.246;14.408;2023-04-25T15:36:23;11.40;64.20
44509;DHT22;30214;52.246;14.408;2023-04-25T15:38:52;11.50;65.20
44509;DHT22;30214;52.246;14.408;2023-04-25T15:41:19;11.50;64.30
44509;DHT22;30214;52.246;14.408;2023-04-25T15:43:47;11.40;64.70
44509;DHT22;30214;52.246;14.408;2023-04-25T15:46:14;11.30;66.80
44509;DHT22;30214;52.246;14.408;2023-04-25T15:48:42;11.20;66.50
44509;DHT22;30214;52.246;14.408;2023-04-25T15:51:09;11.20;65.90